RYS7048 LBWN-EPKT
Flight info
| Callsign | RYS7048 |
|---|---|
| Flight time | 1h 41m |
| Altitude | 36000 |
| Route | BALIK L619 ARGES DCT ASNEL DCT STJ DCT TGM DCT KARIL DCT LENOV |
| Aircraft | B738/M-SDE2E3FGHIRWXY/LB1 |
Departure
| Time | 2026-04-29 14:43 |
|---|---|
| Airport | Varna Airport (LBWN) |
Arrival
| Time | 2026-04-29 16:24 |
|---|---|
| Airport | Katowice Wojciech Korfanty International Airport (EPKT) |
| Time | Latitude | Longitude | Altitude | Speed | Heading |
|---|---|---|---|---|---|
| 2026-04-29 14:01 | 43.23621 | 27.82517 | 221 ft | 0 kts | 7° |
| 2026-04-29 14:35 | 43.23601 | 27.82515 | 223 ft | 3 kts | 348° |
| 2026-04-29 14:35 | 43.23582 | 27.82527 | 221 ft | 3 kts | 313° |
| 2026-04-29 14:35 | 43.23572 | 27.82550 | 223 ft | 2 kts | 277° |
| 2026-04-29 14:35 | 43.23572 | 27.82551 | 223 ft | 0 kts | 276° |
| 2026-04-29 14:38 | 43.23572 | 27.82550 | 223 ft | 1 kts | 276° |
| 2026-04-29 14:38 | 43.23574 | 27.82527 | 221 ft | 4 kts | 277° |
| 2026-04-29 14:38 | 43.23579 | 27.82470 | 222 ft | 8 kts | 276° |
| 2026-04-29 14:38 | 43.23586 | 27.82374 | 222 ft | 12 kts | 276° |
| 2026-04-29 14:39 | 43.23565 | 27.82263 | 221 ft | 13 kts | 207° |
| 2026-04-29 14:39 | 43.23486 | 27.82219 | 222 ft | 13 kts | 240° |
| 2026-04-29 14:39 | 43.23486 | 27.82101 | 221 ft | 12 kts | 277° |
| 2026-04-29 14:39 | 43.23493 | 27.81985 | 221 ft | 12 kts | 276° |
| 2026-04-29 14:40 | 43.23506 | 27.81873 | 221 ft | 12 kts | 276° |
| 2026-04-29 14:40 | 43.23516 | 27.81765 | 221 ft | 11 kts | 276° |
| 2026-04-29 14:40 | 43.23527 | 27.81640 | 221 ft | 15 kts | 277° |
| 2026-04-29 14:40 | 43.23541 | 27.81472 | 221 ft | 20 kts | 276° |
| 2026-04-29 14:41 | 43.23557 | 27.81280 | 221 ft | 20 kts | 277° |
| 2026-04-29 14:41 | 43.23574 | 27.81097 | 221 ft | 16 kts | 278° |
| 2026-04-29 14:41 | 43.23555 | 27.80955 | 221 ft | 15 kts | 231° |
| 2026-04-29 14:41 | 43.23458 | 27.80930 | 221 ft | 15 kts | 158° |
| 2026-04-29 14:42 | 43.23371 | 27.80998 | 219 ft | 14 kts | 153° |
| 2026-04-29 14:42 | 43.23329 | 27.81040 | 219 ft | 6 kts | 108° |
| 2026-04-29 14:42 | 43.23328 | 27.81051 | 220 ft | 0 kts | 100° |
| 2026-04-29 14:42 | 43.23316 | 27.81169 | 220 ft | 41 kts | 97° |
| 2026-04-29 14:43 | 43.23255 | 27.81860 | 222 ft | 105 kts | 97° |
| 2026-04-29 14:43 | 43.23151 | 27.83109 | 245 ft | 155 kts | 96° |
| 2026-04-29 14:43 | 43.23044 | 27.84621 | 885 ft | 159 kts | 98° |
| 2026-04-29 14:43 | 43.22919 | 27.86174 | 1540 ft | 168 kts | 100° |
| 2026-04-29 14:44 | 43.22786 | 27.87795 | 2170 ft | 177 kts | 102° |
| 2026-04-29 14:44 | 43.22958 | 27.89566 | 2540 ft | 207 kts | 66° |
| 2026-04-29 14:44 | 43.23999 | 27.91003 | 2981 ft | 222 kts | 26° |
| 2026-04-29 14:44 | 43.25527 | 27.91390 | 3451 ft | 230 kts | 351° |
| 2026-04-29 14:45 | 43.27025 | 27.90611 | 3917 ft | 231 kts | 327° |
| 2026-04-29 14:45 | 43.28428 | 27.89539 | 4419 ft | 239 kts | 330° |
| 2026-04-29 14:45 | 43.29942 | 27.88568 | 5048 ft | 244 kts | 332° |
| 2026-04-29 14:45 | 43.31559 | 27.87561 | 5244 ft | 261 kts | 333° |
| 2026-04-29 14:46 | 43.33229 | 27.86586 | 5509 ft | 265 kts | 335° |
| 2026-04-29 14:46 | 43.34936 | 27.85579 | 5687 ft | 266 kts | 335° |
| 2026-04-29 14:46 | 43.36547 | 27.84386 | 6251 ft | 264 kts | 319° |
| 2026-04-29 14:46 | 43.37854 | 27.82693 | 7135 ft | 257 kts | 313° |
| 2026-04-29 14:47 | 43.39143 | 27.80936 | 7787 ft | 264 kts | 313° |
| 2026-04-29 14:47 | 43.40452 | 27.79183 | 8453 ft | 269 kts | 313° |
| 2026-04-29 14:47 | 43.41808 | 27.77397 | 9237 ft | 269 kts | 313° |
| 2026-04-29 14:47 | 43.42724 | 27.76204 | 9784 ft | 269 kts | 313° |
| 2026-04-29 14:48 | 43.44560 | 27.73832 | 10419 ft | 284 kts | 314° |
| 2026-04-29 14:48 | 43.46061 | 27.71903 | 10583 ft | 306 kts | 314° |
| 2026-04-29 14:48 | 43.47666 | 27.69852 | 10814 ft | 322 kts | 314° |
| 2026-04-29 14:48 | 43.49342 | 27.67723 | 11272 ft | 333 kts | 314° |
| 2026-04-29 14:49 | 43.51068 | 27.65538 | 11794 ft | 340 kts | 314° |
| 2026-04-29 14:49 | 43.52791 | 27.63361 | 12508 ft | 341 kts | 314° |
| 2026-04-29 14:49 | 43.54542 | 27.61153 | 13288 ft | 342 kts | 314° |
| 2026-04-29 14:49 | 43.56296 | 27.58939 | 14064 ft | 342 kts | 314° |
| 2026-04-29 14:50 | 43.58050 | 27.56723 | 14803 ft | 342 kts | 314° |
| 2026-04-29 14:50 | 43.59810 | 27.54499 | 15522 ft | 343 kts | 314° |
| 2026-04-29 14:50 | 43.61573 | 27.52269 | 16211 ft | 345 kts | 314° |
| 2026-04-29 14:50 | 43.63347 | 27.50021 | 16912 ft | 348 kts | 314° |
| 2026-04-29 14:51 | 43.65135 | 27.47754 | 17592 ft | 349 kts | 314° |
| 2026-04-29 14:51 | 43.66930 | 27.45476 | 18251 ft | 352 kts | 314° |
| 2026-04-29 14:51 | 43.68712 | 27.43214 | 18822 ft | 354 kts | 314° |
| 2026-04-29 14:51 | 43.70528 | 27.40905 | 19392 ft | 356 kts | 314° |
| 2026-04-29 14:52 | 43.72359 | 27.38575 | 19946 ft | 358 kts | 313° |
| 2026-04-29 14:52 | 43.74199 | 27.36232 | 20505 ft | 361 kts | 313° |
| 2026-04-29 14:52 | 43.76046 | 27.33878 | 21098 ft | 362 kts | 313° |
| 2026-04-29 14:52 | 43.77900 | 27.31515 | 21684 ft | 363 kts | 313° |
| 2026-04-29 14:53 | 43.79761 | 27.29140 | 22185 ft | 366 kts | 313° |
| 2026-04-29 14:53 | 43.81637 | 27.26742 | 22720 ft | 368 kts | 313° |
| 2026-04-29 14:53 | 43.83527 | 27.24324 | 23222 ft | 371 kts | 313° |
| 2026-04-29 14:53 | 43.85426 | 27.21894 | 23723 ft | 372 kts | 313° |
| 2026-04-29 14:54 | 43.87305 | 27.19486 | 24137 ft | 374 kts | 313° |
| 2026-04-29 14:54 | 43.89221 | 27.17029 | 24578 ft | 376 kts | 313° |
| 2026-04-29 14:54 | 43.91142 | 27.14564 | 25025 ft | 376 kts | 313° |
| 2026-04-29 14:54 | 43.93067 | 27.12093 | 25459 ft | 377 kts | 313° |
| 2026-04-29 14:55 | 43.94993 | 27.09616 | 25884 ft | 379 kts | 313° |
| 2026-04-29 14:55 | 43.96929 | 27.07124 | 26278 ft | 380 kts | 313° |
| 2026-04-29 14:55 | 43.98869 | 27.04625 | 26661 ft | 382 kts | 313° |
| 2026-04-29 14:55 | 44.00818 | 27.02112 | 27039 ft | 383 kts | 313° |
| 2026-04-29 14:56 | 44.02753 | 26.99614 | 27407 ft | 385 kts | 313° |
| 2026-04-29 14:56 | 44.04716 | 26.97078 | 27762 ft | 387 kts | 313° |
| 2026-04-29 14:56 | 44.06691 | 26.94524 | 28117 ft | 388 kts | 313° |
| 2026-04-29 14:56 | 44.08672 | 26.91960 | 28472 ft | 390 kts | 313° |
| 2026-04-29 14:57 | 44.10660 | 26.89384 | 28826 ft | 391 kts | 313° |
| 2026-04-29 14:57 | 44.12644 | 26.86813 | 29450 ft | 387 kts | 313° |
| 2026-04-29 14:57 | 44.14596 | 26.84283 | 30175 ft | 380 kts | 313° |
| 2026-04-29 14:57 | 44.16520 | 26.81787 | 30610 ft | 377 kts | 313° |
| 2026-04-29 14:58 | 44.18411 | 26.79327 | 30939 ft | 377 kts | 312° |
| 2026-04-29 14:58 | 44.20330 | 26.76826 | 31226 ft | 378 kts | 312° |
| 2026-04-29 14:58 | 44.22251 | 26.74322 | 31545 ft | 378 kts | 312° |
| 2026-04-29 14:58 | 44.24164 | 26.71826 | 31939 ft | 376 kts | 312° |
| 2026-04-29 14:59 | 44.26065 | 26.69346 | 32360 ft | 373 kts | 312° |
| 2026-04-29 14:59 | 44.27957 | 26.66875 | 32717 ft | 372 kts | 311° |
| 2026-04-29 14:59 | 44.29841 | 26.64409 | 33050 ft | 371 kts | 311° |
| 2026-04-29 14:59 | 44.31723 | 26.61946 | 33398 ft | 370 kts | 311° |
| 2026-04-29 15:00 | 44.33569 | 26.59527 | 33746 ft | 369 kts | 311° |
| 2026-04-29 15:00 | 44.35437 | 26.57077 | 34101 ft | 367 kts | 311° |
| 2026-04-29 15:00 | 44.37296 | 26.54637 | 34359 ft | 367 kts | 311° |
| 2026-04-29 15:00 | 44.39155 | 26.52194 | 34590 ft | 367 kts | 311° |
| 2026-04-29 15:01 | 44.41014 | 26.49748 | 34789 ft | 368 kts | 311° |
| 2026-04-29 15:01 | 44.42880 | 26.47290 | 34987 ft | 369 kts | 311° |
| 2026-04-29 15:01 | 44.44757 | 26.44815 | 35139 ft | 371 kts | 311° |
| 2026-04-29 15:01 | 44.46641 | 26.42330 | 35261 ft | 374 kts | 311° |
| 2026-04-29 15:02 | 44.48519 | 26.39852 | 35348 ft | 378 kts | 311° |
| 2026-04-29 15:02 | 44.50431 | 26.37326 | 35546 ft | 378 kts | 311° |
| 2026-04-29 15:02 | 44.52347 | 26.34794 | 35767 ft | 378 kts | 311° |
| 2026-04-29 15:02 | 44.54347 | 26.32371 | 35942 ft | 383 kts | 318° |
| 2026-04-29 15:03 | 44.56578 | 26.30275 | 36087 ft | 388 kts | 320° |
| 2026-04-29 15:03 | 44.61138 | 26.26136 | 36141 ft | 392 kts | 321° |
| 2026-04-29 15:04 | 44.65700 | 26.21970 | 36148 ft | 388 kts | 320° |
| 2026-04-29 15:04 | 44.70163 | 26.17865 | 36153 ft | 385 kts | 320° |
| 2026-04-29 15:05 | 44.74634 | 26.13732 | 36169 ft | 384 kts | 320° |
| 2026-04-29 15:05 | 44.79104 | 26.09592 | 36159 ft | 385 kts | 320° |
| 2026-04-29 15:06 | 44.83553 | 26.05464 | 36156 ft | 386 kts | 320° |
| 2026-04-29 15:06 | 44.88048 | 26.01287 | 36155 ft | 388 kts | 320° |
| 2026-04-29 15:07 | 44.92554 | 25.97059 | 36152 ft | 389 kts | 319° |
| 2026-04-29 15:07 | 44.96910 | 25.92531 | 36153 ft | 389 kts | 317° |
| 2026-04-29 15:08 | 45.01236 | 25.87889 | 36156 ft | 392 kts | 317° |
| 2026-04-29 15:08 | 45.05567 | 25.83255 | 36155 ft | 394 kts | 317° |
| 2026-04-29 15:09 | 45.09953 | 25.78580 | 36151 ft | 396 kts | 317° |
| 2026-04-29 15:09 | 45.14358 | 25.73887 | 36153 ft | 397 kts | 318° |
| 2026-04-29 15:10 | 45.18746 | 25.69206 | 36152 ft | 397 kts | 318° |
| 2026-04-29 15:10 | 45.23156 | 25.64492 | 36138 ft | 397 kts | 317° |
| 2026-04-29 15:11 | 45.27554 | 25.59782 | 36154 ft | 394 kts | 318° |
| 2026-04-29 15:11 | 45.31923 | 25.55094 | 36147 ft | 392 kts | 318° |
| 2026-04-29 15:12 | 45.36260 | 25.50428 | 36121 ft | 390 kts | 318° |
| 2026-04-29 15:12 | 45.40534 | 25.45824 | 36137 ft | 388 kts | 318° |
| 2026-04-29 15:13 | 45.44834 | 25.41183 | 36127 ft | 388 kts | 318° |
| 2026-04-29 15:13 | 45.49130 | 25.36533 | 36134 ft | 387 kts | 318° |
| 2026-04-29 15:14 | 45.53419 | 25.31883 | 36126 ft | 386 kts | 318° |
| 2026-04-29 15:14 | 45.56970 | 25.28025 | 36148 ft | 386 kts | 317° |
| 2026-04-29 15:15 | 45.61944 | 25.22613 | 36125 ft | 387 kts | 317° |
| 2026-04-29 15:15 | 45.66225 | 25.17945 | 36121 ft | 388 kts | 317° |
| 2026-04-29 15:16 | 45.70522 | 25.13250 | 36109 ft | 389 kts | 317° |
| 2026-04-29 15:16 | 45.74102 | 25.09332 | 36100 ft | 391 kts | 317° |
| 2026-04-29 15:17 | 45.79126 | 25.03821 | 36110 ft | 392 kts | 317° |
| 2026-04-29 15:17 | 45.83460 | 24.99059 | 36101 ft | 393 kts | 317° |
| 2026-04-29 15:18 | 45.87072 | 24.95081 | 36097 ft | 394 kts | 317° |
| 2026-04-29 15:18 | 45.91415 | 24.90291 | 36102 ft | 394 kts | 317° |
| 2026-04-29 15:19 | 45.96463 | 24.84711 | 36085 ft | 394 kts | 318° |
| 2026-04-29 15:19 | 46.00066 | 24.80719 | 36091 ft | 393 kts | 318° |
| 2026-04-29 15:20 | 46.04389 | 24.75922 | 36102 ft | 392 kts | 318° |
| 2026-04-29 15:20 | 46.08698 | 24.71130 | 36091 ft | 391 kts | 317° |
| 2026-04-29 15:21 | 46.12991 | 24.66346 | 36107 ft | 389 kts | 317° |
| 2026-04-29 15:21 | 46.17267 | 24.61571 | 36111 ft | 389 kts | 317° |
| 2026-04-29 15:22 | 46.21508 | 24.56825 | 36094 ft | 388 kts | 317° |
| 2026-04-29 15:22 | 46.25768 | 24.52048 | 36099 ft | 387 kts | 317° |
| 2026-04-29 15:23 | 46.30024 | 24.47267 | 36115 ft | 388 kts | 317° |
| 2026-04-29 15:23 | 46.34283 | 24.42471 | 36099 ft | 388 kts | 317° |
| 2026-04-29 15:24 | 46.38521 | 24.37690 | 36096 ft | 389 kts | 317° |
| 2026-04-29 15:24 | 46.42798 | 24.32856 | 36099 ft | 391 kts | 317° |
| 2026-04-29 15:25 | 46.46960 | 24.27813 | 36107 ft | 390 kts | 314° |
| 2026-04-29 15:25 | 46.50936 | 24.22468 | 36110 ft | 390 kts | 313° |
| 2026-04-29 15:26 | 46.54876 | 24.17124 | 36111 ft | 390 kts | 313° |
| 2026-04-29 15:26 | 46.58855 | 24.11748 | 36094 ft | 391 kts | 313° |
| 2026-04-29 15:27 | 46.62842 | 24.06371 | 36105 ft | 390 kts | 313° |
| 2026-04-29 15:27 | 46.66822 | 24.01000 | 36119 ft | 390 kts | 313° |
| 2026-04-29 15:28 | 46.70791 | 23.95633 | 36122 ft | 389 kts | 313° |
| 2026-04-29 15:28 | 46.74726 | 23.90301 | 36132 ft | 389 kts | 313° |
| 2026-04-29 15:29 | 46.78688 | 23.84920 | 36138 ft | 389 kts | 313° |
| 2026-04-29 15:30 | 46.86606 | 23.74134 | 36125 ft | 389 kts | 313° |
| 2026-04-29 15:30 | 46.90530 | 23.68772 | 36134 ft | 389 kts | 313° |
| 2026-04-29 15:31 | 46.94479 | 23.63365 | 36132 ft | 389 kts | 313° |
| 2026-04-29 15:31 | 46.98425 | 23.57949 | 36126 ft | 389 kts | 313° |
| 2026-04-29 15:32 | 47.02372 | 23.52521 | 36135 ft | 389 kts | 313° |
| 2026-04-29 15:32 | 47.06295 | 23.47114 | 36136 ft | 389 kts | 313° |
| 2026-04-29 15:33 | 47.10242 | 23.41663 | 36156 ft | 390 kts | 313° |
| 2026-04-29 15:33 | 47.14195 | 23.36191 | 36146 ft | 391 kts | 313° |
| 2026-04-29 15:34 | 47.18153 | 23.30702 | 36145 ft | 391 kts | 313° |
| 2026-04-29 15:34 | 47.22107 | 23.25205 | 36157 ft | 392 kts | 313° |
| 2026-04-29 15:35 | 47.26041 | 23.19726 | 36150 ft | 392 kts | 313° |
| 2026-04-29 15:35 | 47.29997 | 23.14202 | 36152 ft | 392 kts | 313° |
| 2026-04-29 15:36 | 47.33951 | 23.08671 | 36151 ft | 392 kts | 313° |
| 2026-04-29 15:36 | 47.37902 | 23.03131 | 36152 ft | 392 kts | 313° |
| 2026-04-29 15:37 | 47.41832 | 22.97609 | 36166 ft | 393 kts | 313° |
| 2026-04-29 15:37 | 47.45788 | 22.92037 | 36174 ft | 393 kts | 313° |
| 2026-04-29 15:38 | 47.49748 | 22.86448 | 36177 ft | 394 kts | 313° |
| 2026-04-29 15:38 | 47.53706 | 22.80851 | 36178 ft | 394 kts | 313° |
| 2026-04-29 15:39 | 47.57661 | 22.75244 | 36184 ft | 393 kts | 313° |
| 2026-04-29 15:39 | 47.61581 | 22.69674 | 36180 ft | 393 kts | 313° |
| 2026-04-29 15:40 | 47.65527 | 22.64056 | 36186 ft | 393 kts | 313° |
| 2026-04-29 15:40 | 47.69470 | 22.58429 | 36185 ft | 393 kts | 313° |
| 2026-04-29 15:41 | 47.73412 | 22.52791 | 36195 ft | 395 kts | 313° |
| 2026-04-29 15:41 | 47.77338 | 22.47165 | 36192 ft | 395 kts | 313° |
| 2026-04-29 15:42 | 47.81641 | 22.42077 | 36196 ft | 399 kts | 325° |
| 2026-04-29 15:42 | 47.86409 | 22.37852 | 36185 ft | 399 kts | 325° |
| 2026-04-29 15:43 | 47.91167 | 22.33616 | 36197 ft | 398 kts | 325° |
| 2026-04-29 15:43 | 47.95875 | 22.29390 | 36198 ft | 397 kts | 324° |
| 2026-04-29 15:44 | 48.00598 | 22.25126 | 36234 ft | 397 kts | 325° |
| 2026-04-29 15:44 | 48.05325 | 22.20846 | 36211 ft | 397 kts | 325° |
| 2026-04-29 15:45 | 48.10043 | 22.16564 | 36215 ft | 397 kts | 325° |
| 2026-04-29 15:45 | 48.14761 | 22.12273 | 36213 ft | 397 kts | 324° |
| 2026-04-29 15:46 | 48.19444 | 22.08005 | 36215 ft | 397 kts | 324° |
| 2026-04-29 15:46 | 48.24161 | 22.03697 | 36217 ft | 397 kts | 324° |
| 2026-04-29 15:47 | 48.28879 | 21.99378 | 36241 ft | 397 kts | 325° |
| 2026-04-29 15:47 | 48.33606 | 21.95041 | 36230 ft | 398 kts | 325° |
| 2026-04-29 15:48 | 48.38309 | 21.90717 | 36225 ft | 399 kts | 325° |
| 2026-04-29 15:48 | 48.43049 | 21.86350 | 36225 ft | 400 kts | 325° |
| 2026-04-29 15:49 | 48.47781 | 21.81918 | 36225 ft | 400 kts | 322° |
| 2026-04-29 15:49 | 48.52295 | 21.77035 | 36239 ft | 400 kts | 320° |
| 2026-04-29 15:50 | 48.56758 | 21.72013 | 36253 ft | 400 kts | 320° |
| 2026-04-29 15:50 | 48.61215 | 21.67033 | 36243 ft | 402 kts | 321° |
| 2026-04-29 15:51 | 48.65734 | 21.62016 | 36240 ft | 404 kts | 321° |
| 2026-04-29 15:51 | 48.70268 | 21.56990 | 36238 ft | 405 kts | 321° |
| 2026-04-29 15:52 | 48.74814 | 21.51945 | 36265 ft | 405 kts | 321° |
| 2026-04-29 15:52 | 48.79295 | 21.46964 | 36215 ft | 394 kts | 321° |
| 2026-04-29 15:52 | 48.81489 | 21.44523 | 35906 ft | 387 kts | 321° |
| 2026-04-29 15:53 | 48.83645 | 21.42119 | 35567 ft | 383 kts | 321° |
| 2026-04-29 15:53 | 48.85780 | 21.39735 | 35215 ft | 379 kts | 320° |
| 2026-04-29 15:53 | 48.87902 | 21.37363 | 34854 ft | 378 kts | 321° |
| 2026-04-29 15:53 | 48.90015 | 21.34996 | 34469 ft | 376 kts | 321° |
| 2026-04-29 15:54 | 48.92120 | 21.32636 | 34048 ft | 375 kts | 321° |
| 2026-04-29 15:54 | 48.94210 | 21.30291 | 33649 ft | 372 kts | 320° |
| 2026-04-29 15:54 | 48.96261 | 21.27989 | 33265 ft | 370 kts | 320° |
| 2026-04-29 15:54 | 48.98324 | 21.25670 | 32896 ft | 367 kts | 320° |
| 2026-04-29 15:55 | 49.00365 | 21.23375 | 32534 ft | 363 kts | 320° |
| 2026-04-29 15:55 | 49.02388 | 21.21097 | 32166 ft | 360 kts | 320° |
| 2026-04-29 15:55 | 49.04390 | 21.18840 | 31817 ft | 356 kts | 320° |
| 2026-04-29 15:55 | 49.06371 | 21.16604 | 31470 ft | 353 kts | 320° |
| 2026-04-29 15:56 | 49.08335 | 21.14385 | 31135 ft | 349 kts | 320° |
| 2026-04-29 15:56 | 49.10253 | 21.12217 | 30806 ft | 346 kts | 320° |
| 2026-04-29 15:56 | 49.12175 | 21.10041 | 30470 ft | 343 kts | 319° |
| 2026-04-29 15:56 | 49.14082 | 21.07881 | 30094 ft | 339 kts | 319° |
| 2026-04-29 15:57 | 49.15963 | 21.05748 | 29751 ft | 334 kts | 319° |
| 2026-04-29 15:57 | 49.17816 | 21.03644 | 29394 ft | 330 kts | 319° |
| 2026-04-29 15:57 | 49.19644 | 21.01568 | 29068 ft | 325 kts | 319° |
| 2026-04-29 15:57 | 49.21445 | 20.99520 | 28729 ft | 320 kts | 319° |
| 2026-04-29 15:58 | 49.23221 | 20.97498 | 28401 ft | 316 kts | 319° |
| 2026-04-29 15:58 | 49.24971 | 20.95504 | 28078 ft | 312 kts | 319° |
| 2026-04-29 15:58 | 49.26702 | 20.93528 | 27755 ft | 309 kts | 319° |
| 2026-04-29 15:58 | 49.28390 | 20.91601 | 27440 ft | 305 kts | 319° |
| 2026-04-29 15:59 | 49.30079 | 20.89672 | 27112 ft | 301 kts | 319° |
| 2026-04-29 15:59 | 49.31748 | 20.87764 | 26818 ft | 297 kts | 319° |
| 2026-04-29 15:59 | 49.33392 | 20.85883 | 26521 ft | 294 kts | 319° |
| 2026-04-29 15:59 | 49.35018 | 20.84019 | 26210 ft | 290 kts | 318° |
| 2026-04-29 16:00 | 49.36629 | 20.82172 | 25913 ft | 287 kts | 318° |
| 2026-04-29 16:00 | 49.38221 | 20.80344 | 25617 ft | 285 kts | 318° |
| 2026-04-29 16:00 | 49.39799 | 20.78531 | 25343 ft | 281 kts | 318° |
| 2026-04-29 16:00 | 49.41339 | 20.76765 | 25048 ft | 279 kts | 318° |
| 2026-04-29 16:01 | 49.42888 | 20.74983 | 24776 ft | 277 kts | 318° |
| 2026-04-29 16:01 | 49.44423 | 20.73214 | 24458 ft | 275 kts | 318° |
| 2026-04-29 16:01 | 49.45946 | 20.71458 | 24233 ft | 273 kts | 318° |
| 2026-04-29 16:01 | 49.47464 | 20.69706 | 23927 ft | 273 kts | 318° |
| 2026-04-29 16:02 | 49.48978 | 20.67957 | 23598 ft | 272 kts | 318° |
| 2026-04-29 16:02 | 49.50479 | 20.66223 | 23304 ft | 268 kts | 318° |
| 2026-04-29 16:02 | 49.51962 | 20.64510 | 22994 ft | 265 kts | 318° |
| 2026-04-29 16:02 | 49.53430 | 20.62813 | 22735 ft | 263 kts | 318° |
| 2026-04-29 16:03 | 49.54889 | 20.61123 | 22461 ft | 262 kts | 318° |
| 2026-04-29 16:03 | 49.56343 | 20.59434 | 22169 ft | 270 kts | 319° |
| 2026-04-29 16:03 | 49.57882 | 20.57642 | 21882 ft | 284 kts | 319° |
| 2026-04-29 16:03 | 49.59472 | 20.55793 | 21571 ft | 286 kts | 319° |
| 2026-04-29 16:04 | 49.61054 | 20.53958 | 21278 ft | 283 kts | 320° |
| 2026-04-29 16:04 | 49.62622 | 20.52139 | 20983 ft | 280 kts | 320° |
| 2026-04-29 16:04 | 49.64175 | 20.50335 | 20668 ft | 279 kts | 320° |
| 2026-04-29 16:04 | 49.65715 | 20.48544 | 20387 ft | 276 kts | 320° |
| 2026-04-29 16:05 | 49.67245 | 20.46763 | 20088 ft | 274 kts | 320° |
| 2026-04-29 16:05 | 49.68762 | 20.44994 | 19804 ft | 272 kts | 320° |
| 2026-04-29 16:05 | 49.70247 | 20.43261 | 19521 ft | 271 kts | 320° |
| 2026-04-29 16:05 | 49.71745 | 20.41511 | 19247 ft | 269 kts | 321° |
| 2026-04-29 16:06 | 49.73234 | 20.39771 | 18962 ft | 268 kts | 321° |
| 2026-04-29 16:06 | 49.74716 | 20.38037 | 18682 ft | 267 kts | 321° |
| 2026-04-29 16:06 | 49.76192 | 20.36310 | 18413 ft | 265 kts | 321° |
| 2026-04-29 16:06 | 49.77666 | 20.34580 | 18076 ft | 267 kts | 323° |
| 2026-04-29 16:07 | 49.79154 | 20.32836 | 17773 ft | 269 kts | 323° |
| 2026-04-29 16:07 | 49.80660 | 20.31070 | 17477 ft | 276 kts | 323° |
| 2026-04-29 16:07 | 49.82223 | 20.29235 | 17200 ft | 287 kts | 324° |
| 2026-04-29 16:07 | 49.83803 | 20.27379 | 16885 ft | 289 kts | 324° |
| 2026-04-29 16:08 | 49.85401 | 20.25499 | 16574 ft | 288 kts | 324° |
| 2026-04-29 16:08 | 49.86987 | 20.23630 | 16272 ft | 286 kts | 324° |
| 2026-04-29 16:08 | 49.88565 | 20.21771 | 15974 ft | 285 kts | 324° |
| 2026-04-29 16:08 | 49.90137 | 20.19917 | 15681 ft | 283 kts | 324° |
| 2026-04-29 16:09 | 49.91704 | 20.18067 | 15394 ft | 282 kts | 324° |
| 2026-04-29 16:09 | 49.93262 | 20.16227 | 15120 ft | 281 kts | 324° |
| 2026-04-29 16:09 | 49.94813 | 20.14393 | 14833 ft | 280 kts | 324° |
| 2026-04-29 16:09 | 49.96339 | 20.12587 | 14557 ft | 279 kts | 324° |
| 2026-04-29 16:10 | 49.97885 | 20.10756 | 14267 ft | 279 kts | 324° |
| 2026-04-29 16:10 | 49.99424 | 20.08931 | 13966 ft | 278 kts | 324° |
| 2026-04-29 16:10 | 50.00962 | 20.07107 | 13648 ft | 278 kts | 324° |
| 2026-04-29 16:10 | 50.02493 | 20.05290 | 13354 ft | 276 kts | 324° |
| 2026-04-29 16:11 | 50.04019 | 20.03477 | 13058 ft | 275 kts | 324° |
| 2026-04-29 16:11 | 50.05537 | 20.01671 | 12766 ft | 274 kts | 324° |
| 2026-04-29 16:11 | 50.07044 | 19.99875 | 12503 ft | 272 kts | 325° |
| 2026-04-29 16:11 | 50.08530 | 19.98107 | 12219 ft | 272 kts | 325° |
| 2026-04-29 16:12 | 50.10028 | 19.96322 | 11935 ft | 271 kts | 325° |
| 2026-04-29 16:12 | 50.11036 | 19.95119 | 11746 ft | 270 kts | 326° |
| 2026-04-29 16:12 | 50.13012 | 19.92760 | 11378 ft | 270 kts | 326° |
| 2026-04-29 16:12 | 50.14500 | 19.90983 | 11096 ft | 269 kts | 325° |
| 2026-04-29 16:13 | 50.15982 | 19.89211 | 10823 ft | 269 kts | 325° |
| 2026-04-29 16:13 | 50.17469 | 19.87431 | 10544 ft | 269 kts | 326° |
| 2026-04-29 16:13 | 50.18939 | 19.85668 | 10398 ft | 264 kts | 326° |
| 2026-04-29 16:13 | 50.20393 | 19.83926 | 10147 ft | 264 kts | 325° |
| 2026-04-29 16:14 | 50.21848 | 19.82181 | 9872 ft | 264 kts | 325° |
| 2026-04-29 16:14 | 50.23304 | 19.80434 | 9598 ft | 264 kts | 325° |
| 2026-04-29 16:14 | 50.24739 | 19.78710 | 9310 ft | 264 kts | 326° |
| 2026-04-29 16:14 | 50.26191 | 19.76962 | 9071 ft | 263 kts | 326° |
| 2026-04-29 16:15 | 50.27645 | 19.75213 | 8793 ft | 264 kts | 325° |
| 2026-04-29 16:15 | 50.29100 | 19.73461 | 8520 ft | 264 kts | 326° |
| 2026-04-29 16:15 | 50.30556 | 19.71707 | 8254 ft | 264 kts | 326° |
| 2026-04-29 16:15 | 50.31999 | 19.69964 | 7969 ft | 260 kts | 326° |
| 2026-04-29 16:16 | 50.33430 | 19.68237 | 7529 ft | 263 kts | 325° |
| 2026-04-29 16:16 | 50.34885 | 19.66481 | 7140 ft | 264 kts | 325° |
| 2026-04-29 16:16 | 50.36319 | 19.64744 | 6835 ft | 264 kts | 326° |
| 2026-04-29 16:16 | 50.37761 | 19.63001 | 6542 ft | 258 kts | 325° |
| 2026-04-29 16:17 | 50.39161 | 19.61302 | 6252 ft | 251 kts | 325° |
| 2026-04-29 16:17 | 50.40518 | 19.59656 | 6037 ft | 242 kts | 325° |
| 2026-04-29 16:17 | 50.41834 | 19.58060 | 5820 ft | 238 kts | 326° |
| 2026-04-29 16:17 | 50.43120 | 19.56498 | 5653 ft | 229 kts | 326° |
| 2026-04-29 16:18 | 50.44360 | 19.54991 | 5509 ft | 223 kts | 326° |
| 2026-04-29 16:18 | 50.45579 | 19.53510 | 5413 ft | 221 kts | 326° |
| 2026-04-29 16:18 | 50.46766 | 19.51969 | 5291 ft | 223 kts | 315° |
| 2026-04-29 16:18 | 50.47391 | 19.49774 | 5066 ft | 232 kts | 279° |
| 2026-04-29 16:19 | 50.47418 | 19.47242 | 4836 ft | 230 kts | 276° |
| 2026-04-29 16:19 | 50.47467 | 19.44759 | 4739 ft | 227 kts | 276° |
| 2026-04-29 16:19 | 50.47503 | 19.42269 | 4514 ft | 229 kts | 275° |
| 2026-04-29 16:19 | 50.47522 | 19.39774 | 4287 ft | 228 kts | 275° |
| 2026-04-29 16:20 | 50.47533 | 19.37299 | 4067 ft | 226 kts | 274° |
| 2026-04-29 16:20 | 50.47553 | 19.34843 | 3834 ft | 224 kts | 275° |
| 2026-04-29 16:20 | 50.47576 | 19.32433 | 3632 ft | 216 kts | 275° |
| 2026-04-29 16:20 | 50.47580 | 19.30118 | 3417 ft | 207 kts | 275° |
| 2026-04-29 16:21 | 50.47579 | 19.27934 | 3196 ft | 199 kts | 276° |
| 2026-04-29 16:21 | 50.47579 | 19.25849 | 3028 ft | 182 kts | 275° |
| 2026-04-29 16:21 | 50.47579 | 19.23928 | 2873 ft | 169 kts | 275° |
| 2026-04-29 16:21 | 50.47580 | 19.22151 | 2628 ft | 158 kts | 275° |
| 2026-04-29 16:22 | 50.47583 | 19.20437 | 2474 ft | 157 kts | 277° |
| 2026-04-29 16:22 | 50.47584 | 19.18704 | 2214 ft | 159 kts | 276° |
| 2026-04-29 16:22 | 50.47541 | 19.16995 | 2019 ft | 153 kts | 275° |
| 2026-04-29 16:22 | 50.47556 | 19.15328 | 1763 ft | 153 kts | 276° |
| 2026-04-29 16:23 | 50.47603 | 19.13703 | 1550 ft | 150 kts | 280° |
| 2026-04-29 16:23 | 50.47583 | 19.12020 | 1352 ft | 158 kts | 271° |
| 2026-04-29 16:23 | 50.47591 | 19.10289 | 1078 ft | 158 kts | 274° |
| 2026-04-29 16:23 | 50.47599 | 19.08630 | 999 ft | 138 kts | 270° |
| 2026-04-29 16:24 | 50.47601 | 19.07364 | 1000 ft | 94 kts | 270° |
| 2026-04-29 16:24 | 50.47603 | 19.06571 | 996 ft | 51 kts | 270° |
| 2026-04-29 16:24 | 50.47604 | 19.06233 | 994 ft | 19 kts | 270° |
| 2026-04-29 16:24 | 50.47593 | 19.06034 | 995 ft | 18 kts | 246° |
| 2026-04-29 16:25 | 50.47481 | 19.05982 | 993 ft | 19 kts | 173° |
| 2026-04-29 16:25 | 50.47428 | 19.06143 | 992 ft | 18 kts | 90° |
| 2026-04-29 16:25 | 50.47427 | 19.06340 | 994 ft | 18 kts | 90° |
| 2026-04-29 16:25 | 50.47427 | 19.06527 | 997 ft | 16 kts | 89° |
| 2026-04-29 16:26 | 50.47359 | 19.06626 | 1001 ft | 15 kts | 179° |
| 2026-04-29 16:26 | 50.47260 | 19.06636 | 1001 ft | 14 kts | 151° |
| 2026-04-29 16:26 | 50.47236 | 19.06776 | 997 ft | 14 kts | 90° |
| 2026-04-29 16:26 | 50.47236 | 19.06922 | 997 ft | 13 kts | 90° |
| 2026-04-29 16:27 | 50.47235 | 19.07063 | 1002 ft | 13 kts | 90° |
| 2026-04-29 16:27 | 50.47235 | 19.07172 | 1002 ft | 1 kts | 90° |
| 2026-04-29 16:27 | 50.47234 | 19.07188 | 1002 ft | 2 kts | 97° |
| 2026-04-29 16:27 | 50.47219 | 19.07208 | 1000 ft | 4 kts | 161° |
| 2026-04-29 16:28 | 50.47187 | 19.07212 | 1001 ft | 1 kts | 178° |
| 2026-04-29 16:28 | 50.47184 | 19.07212 | 1000 ft | 1 kts | 178° |
| 2026-04-29 16:28 | 50.47183 | 19.07212 | 1000 ft | 0 kts | 178° |